createdAt,value
2023-04-04T00:02:21.536Z,3.15
2023-04-04T00:05:46.827Z,3.11
2023-04-04T00:09:12.145Z,2.99
2023-04-04T00:12:37.485Z,2.88
2023-04-04T00:16:02.770Z,2.82
2023-04-04T00:19:28.042Z,2.8
2023-04-04T00:22:53.339Z,2.76
2023-04-04T00:26:18.633Z,2.77
2023-04-04T00:29:44.040Z,2.75
2023-04-04T00:33:09.398Z,2.78
2023-04-04T00:36:34.673Z,2.77
2023-04-04T00:39:59.976Z,2.74
2023-04-04T00:43:25.291Z,2.72
2023-04-04T00:46:50.599Z,2.71
2023-04-04T00:50:15.858Z,2.7
2023-04-04T00:53:41.161Z,2.72
2023-04-04T00:57:06.473Z,2.71
2023-04-04T01:00:31.795Z,2.71
2023-04-04T01:03:57.240Z,2.74
2023-04-04T01:07:22.426Z,2.73
2023-04-04T01:10:47.702Z,2.74
2023-04-04T01:14:12.969Z,2.79
2023-04-04T01:17:38.293Z,2.82
2023-04-04T01:21:03.558Z,2.83
2023-04-04T01:24:28.818Z,2.83
2023-04-04T01:27:54.118Z,2.83
2023-04-04T01:31:19.530Z,2.84
2023-04-04T01:34:44.751Z,2.83
2023-04-04T01:38:10.067Z,2.83
2023-04-04T01:41:35.274Z,2.8
2023-04-04T01:45:00.627Z,2.71
2023-04-04T01:48:25.905Z,2.65
2023-04-04T01:51:51.229Z,2.59
2023-04-04T01:55:16.667Z,2.53
2023-04-04T01:58:41.806Z,2.45
2023-04-04T02:02:07.074Z,2.45
2023-04-04T02:05:32.322Z,2.51
2023-04-04T02:08:57.632Z,2.58
2023-04-04T02:12:22.936Z,2.66
2023-04-04T02:15:48.261Z,2.74
2023-04-04T02:19:13.460Z,2.81
2023-04-04T02:22:38.717Z,2.85
2023-04-04T02:26:03.998Z,2.89
2023-04-04T02:29:29.316Z,2.9
2023-04-04T02:32:54.610Z,2.84
2023-04-04T02:36:19.792Z,2.75
2023-04-04T02:39:45.045Z,2.68
2023-04-04T02:43:10.284Z,2.64
2023-04-04T02:46:35.734Z,2.59
2023-04-04T02:50:00.861Z,2.6
2023-04-04T02:53:26.158Z,2.61
2023-04-04T02:56:51.415Z,2.62
2023-04-04T03:00:16.703Z,2.63
2023-04-04T03:03:42.078Z,2.65
2023-04-04T03:07:07.226Z,2.7
2023-04-04T03:10:32.501Z,2.71
2023-04-04T03:13:57.770Z,2.69
2023-04-04T03:17:23.063Z,2.71
2023-04-04T03:20:48.299Z,2.69
2023-04-04T03:24:13.572Z,2.65
2023-04-04T03:27:38.800Z,2.61
2023-04-04T03:31:04.061Z,2.61
2023-04-04T03:34:29.298Z,2.57
2023-04-04T03:37:54.592Z,2.55
2023-04-04T03:41:19.816Z,2.55
2023-04-04T03:44:45.064Z,2.56
2023-04-04T03:48:10.255Z,2.6
2023-04-04T03:51:35.453Z,2.63
2023-04-04T03:55:00.700Z,2.66
2023-04-04T03:58:25.866Z,2.71
2023-04-04T04:01:51.077Z,2.69
2023-04-04T04:05:16.307Z,2.66
2023-04-04T04:08:41.502Z,2.65
2023-04-04T04:12:06.740Z,2.64
2023-04-04T04:15:31.959Z,2.64
2023-04-04T04:18:57.157Z,2.65
2023-04-04T04:22:22.359Z,2.68
2023-04-04T04:25:47.574Z,2.71
2023-04-04T04:29:12.853Z,2.76
2023-04-04T04:32:38.041Z,2.79
2023-04-04T04:36:03.236Z,2.81
2023-04-04T04:39:28.419Z,2.83
2023-04-04T04:42:53.698Z,2.87
2023-04-04T04:46:19.072Z,2.88
2023-04-04T04:49:44.520Z,2.89
2023-04-04T04:53:09.904Z,2.9
2023-04-04T04:56:35.512Z,2.94
2023-04-04T05:00:00.903Z,2.96
2023-04-04T05:03:26.348Z,2.93
2023-04-04T05:06:51.717Z,2.9
2023-04-04T05:10:17.137Z,2.88
2023-04-04T05:13:42.531Z,2.89
2023-04-04T05:17:07.964Z,2.88
2023-04-04T05:20:34.400Z,2.87
2023-04-04T05:23:59.701Z,2.85
2023-04-04T05:27:24.946Z,2.82
2023-04-04T05:30:50.188Z,2.8
2023-04-04T05:34:15.448Z,2.8
2023-04-04T05:37:40.757Z,2.81
2023-04-04T05:41:06.097Z,2.84
2023-04-04T05:44:31.443Z,2.9
2023-04-04T05:47:56.679Z,2.9
2023-04-04T05:51:21.867Z,2.9
2023-04-04T05:54:47.099Z,2.88
2023-04-04T05:58:12.592Z,2.85
2023-04-04T06:01:37.450Z,2.83
2023-04-04T06:05:02.625Z,2.8
2023-04-04T06:08:27.836Z,2.7
2023-04-04T06:11:53.065Z,2.69
2023-04-04T06:15:18.244Z,2.6
2023-04-04T06:18:43.487Z,2.54
2023-04-04T06:22:08.676Z,2.53
2023-04-04T06:25:33.909Z,2.54
2023-04-04T06:28:59.137Z,2.6
2023-04-04T06:32:24.370Z,2.7
2023-04-04T06:35:49.570Z,2.79
2023-04-04T06:39:14.773Z,2.93
2023-04-04T06:42:39.987Z,2.98
2023-04-04T06:46:05.213Z,2.96
2023-04-04T06:49:30.519Z,3.02
2023-04-04T06:52:55.828Z,3.06
2023-04-04T06:56:21.034Z,3.11
2023-04-04T06:59:46.310Z,3.13
2023-04-04T07:03:11.543Z,3.13
2023-04-04T07:06:36.738Z,3.16
2023-04-04T07:10:01.972Z,3.18
2023-04-04T07:13:27.223Z,3.21
2023-04-04T07:16:52.537Z,3.27
2023-04-04T07:20:17.721Z,3.35
2023-04-04T07:23:42.965Z,3.39
2023-04-04T07:27:08.211Z,3.42
2023-04-04T07:30:33.465Z,3.53
2023-04-04T07:33:58.740Z,3.67
2023-04-04T07:37:23.950Z,3.74
2023-04-04T07:40:49.196Z,3.78
2023-04-04T07:44:14.473Z,3.83
2023-04-04T07:47:39.746Z,3.96
2023-04-04T07:51:05.008Z,3.98
2023-04-04T07:54:30.346Z,3.99
2023-04-04T07:57:55.652Z,4
2023-04-04T08:01:24.174Z,4
2023-04-04T08:04:49.857Z,4
2023-04-04T08:08:15.920Z,3.96
2023-04-04T08:11:41.230Z,3.9
2023-04-04T08:15:11.362Z,3.9
2023-04-04T08:18:37.603Z,3.86
2023-04-04T08:22:02.874Z,3.79
2023-04-04T08:25:28.242Z,3.76
2023-04-04T08:28:53.761Z,3.71
2023-04-04T08:32:19.029Z,3.72
2023-04-04T08:35:44.334Z,3.7
2023-04-04T08:39:09.603Z,3.65
2023-04-04T08:42:34.859Z,3.61
2023-04-04T08:46:00.149Z,3.63
2023-04-04T08:49:25.386Z,3.67
2023-04-04T08:52:50.673Z,3.71
2023-04-04T08:56:15.955Z,3.74
2023-04-04T08:59:41.298Z,3.8
2023-04-04T09:03:06.622Z,3.85
2023-04-04T09:06:31.813Z,3.83
2023-04-04T09:09:57.170Z,3.81
2023-04-04T09:13:22.459Z,3.81
2023-04-04T09:16:47.735Z,3.82
2023-04-04T09:20:13.084Z,3.82
2023-04-04T09:23:38.280Z,3.8
2023-04-04T09:27:03.527Z,3.78
2023-04-04T09:30:28.817Z,3.83
2023-04-04T09:33:54.064Z,3.91
2023-04-04T09:37:19.373Z,3.94
2023-04-04T09:40:44.733Z,3.99
2023-04-04T09:44:09.948Z,4.05
2023-04-04T09:47:35.240Z,4.19
2023-04-04T09:51:00.493Z,4.3
2023-04-04T09:54:29.989Z,4.36
2023-04-04T09:57:51.038Z,4.4
2023-04-04T10:01:16.358Z,4.4
2023-04-04T10:04:41.607Z,4.43
2023-04-04T10:08:06.908Z,4.38
2023-04-04T10:11:32.361Z,4.38
2023-04-04T10:14:57.412Z,4.35
2023-04-04T10:18:22.682Z,4.35
2023-04-04T10:21:48.059Z,4.42
2023-04-04T10:25:13.360Z,4.54
2023-04-04T10:28:38.735Z,4.67
2023-04-04T10:32:03.936Z,4.7
2023-04-04T10:35:29.169Z,4.68
2023-04-04T10:38:54.414Z,4.66
2023-04-04T10:42:19.658Z,4.71
2023-04-04T10:45:44.911Z,4.69
2023-04-04T10:49:10.087Z,4.65
2023-04-04T10:52:35.270Z,4.6
2023-04-04T10:56:00.468Z,4.49
2023-04-04T10:59:25.659Z,4.48
2023-04-04T11:02:50.866Z,4.49
2023-04-04T11:06:15.970Z,4.57
2023-04-04T11:09:41.174Z,4.63
2023-04-04T11:13:12.602Z,4.67
2023-04-04T11:16:31.564Z,4.75
2023-04-04T11:19:56.724Z,4.87
2023-04-04T11:23:21.884Z,4.96
2023-04-04T11:26:47.060Z,4.96
2023-04-04T11:30:12.253Z,5.01
2023-04-04T11:33:37.413Z,5.09
2023-04-04T11:37:02.658Z,5.08
2023-04-04T11:40:27.797Z,5.04
2023-04-04T11:43:52.971Z,5.04
2023-04-04T11:47:18.178Z,5.08
2023-04-04T11:50:43.443Z,5.13
2023-04-04T11:54:08.664Z,5.23
2023-04-04T11:57:33.832Z,5.24
2023-04-04T12:00:59.000Z,5.2
2023-04-04T12:04:24.167Z,5.22
2023-04-04T12:07:49.322Z,5.25
2023-04-04T12:11:14.545Z,5.27
2023-04-04T12:14:39.724Z,5.29
2023-04-04T12:18:04.900Z,5.35
2023-04-04T12:21:30.058Z,5.41
2023-04-04T12:24:55.253Z,5.42
2023-04-04T12:28:20.600Z,5.46
2023-04-04T12:31:45.723Z,5.41
2023-04-04T12:35:10.826Z,5.35
2023-04-04T12:38:36.007Z,5.34
2023-04-04T12:42:01.168Z,5.3
2023-04-04T12:45:26.366Z,5.28
2023-04-04T12:48:51.553Z,5.21
2023-04-04T12:52:16.726Z,5.21
2023-04-04T12:55:42.109Z,5.27
2023-04-04T12:59:07.078Z,5.37
2023-04-04T13:02:32.332Z,5.46
2023-04-04T13:05:57.442Z,5.57
2023-04-04T13:09:22.571Z,5.67
2023-04-04T13:12:47.750Z,5.65
2023-04-04T13:16:12.983Z,5.59
2023-04-04T13:19:38.123Z,5.54
2023-04-04T13:23:03.279Z,5.52
2023-04-04T13:26:28.438Z,5.42
2023-04-04T13:29:53.669Z,5.4
2023-04-04T13:33:18.871Z,5.43
2023-04-04T13:36:44.109Z,5.49
2023-04-04T13:40:09.373Z,5.61
2023-04-04T13:43:34.644Z,5.92
2023-04-04T13:46:59.888Z,6.25
2023-04-04T13:50:25.071Z,6.39
2023-04-04T13:53:50.339Z,6.44
2023-04-04T13:57:15.532Z,6.32
2023-04-04T14:00:40.737Z,6.17
2023-04-04T14:04:13.312Z,6.04
2023-04-04T14:07:31.202Z,6.04
2023-04-04T14:10:56.439Z,6.07
2023-04-04T14:14:21.622Z,6.07
2023-04-04T14:17:46.847Z,6.01
2023-04-04T14:21:12.030Z,5.91
2023-04-04T14:24:37.261Z,5.86
2023-04-04T14:28:02.512Z,5.83
2023-04-04T14:31:27.703Z,5.88
2023-04-04T14:34:52.977Z,5.92
2023-04-04T14:38:18.281Z,5.92
2023-04-04T14:41:43.643Z,5.89
2023-04-04T14:45:08.882Z,5.89
2023-04-04T14:48:34.997Z,5.94
2023-04-04T14:52:00.186Z,6.07
2023-04-04T14:55:25.396Z,6.17
2023-04-04T14:58:50.594Z,6.28
2023-04-04T15:02:15.832Z,6.29
2023-04-04T15:05:41.156Z,6.2
2023-04-04T15:38:37.561Z,3.54
2023-04-04T15:42:02.761Z,4.48
2023-04-04T15:45:27.988Z,4.63
2023-04-04T15:48:53.222Z,4.8
2023-04-04T15:52:18.426Z,5.04
2023-04-04T15:55:43.656Z,5.27
2023-04-04T15:59:08.821Z,5.47
2023-04-04T16:02:34.074Z,5.59
2023-04-04T16:05:59.222Z,5.76
2023-04-04T16:09:24.413Z,6.01
2023-04-04T16:12:49.618Z,6.23
2023-04-04T16:16:14.806Z,6.39
2023-04-04T16:19:40.036Z,6.39
2023-04-04T16:23:05.232Z,6.2
2023-04-04T16:26:30.457Z,6.05
2023-04-04T16:29:55.714Z,5.86
2023-04-04T16:33:20.864Z,5.65
2023-04-04T16:36:46.079Z,5.57
2023-04-04T16:40:14.111Z,5.53
2023-04-04T16:43:38.189Z,5.55
2023-04-04T16:47:04.381Z,5.58
2023-04-04T16:50:30.724Z,5.6
2023-04-04T16:53:57.023Z,5.66
2023-04-04T16:57:22.320Z,5.73
2023-04-04T17:00:47.532Z,5.78
2023-04-04T17:04:12.776Z,5.85
2023-04-04T17:07:37.931Z,5.87
2023-04-04T17:11:03.134Z,5.89
2023-04-04T17:14:28.361Z,5.9
2023-04-04T17:17:53.597Z,5.9
2023-04-04T17:21:18.772Z,5.82
2023-04-04T17:24:43.933Z,5.74
2023-04-04T17:28:09.117Z,5.66
2023-04-04T17:31:34.306Z,5.58
2023-04-04T17:34:59.579Z,5.52
2023-04-04T17:38:24.773Z,5.46
2023-04-04T17:41:50.469Z,5.39
2023-04-04T17:45:15.936Z,5.32
2023-04-04T17:48:41.307Z,5.13
2023-04-04T17:52:06.728Z,4.99
2023-04-04T17:55:32.883Z,4.94
2023-04-04T17:58:58.323Z,4.94
2023-04-04T18:02:23.705Z,4.89
2023-04-04T18:05:49.083Z,4.84
2023-04-04T18:09:14.480Z,4.83
2023-04-04T18:12:39.934Z,4.84
2023-04-04T18:16:05.269Z,4.88
2023-04-04T18:19:30.646Z,4.84
2023-04-04T18:22:56.009Z,4.81
2023-04-04T18:26:21.410Z,4.77
2023-04-04T18:29:46.736Z,4.74
2023-04-04T18:33:11.941Z,4.71
2023-04-04T18:36:37.278Z,4.67
2023-04-04T18:40:02.552Z,4.62
2023-04-04T18:43:27.778Z,4.58
2023-04-04T18:46:53.116Z,4.56
2023-04-04T18:50:18.345Z,4.51
2023-04-04T18:53:43.578Z,4.49
2023-04-04T18:57:08.829Z,4.47
2023-04-04T19:00:34.083Z,4.47
2023-04-04T19:03:59.352Z,4.47
2023-04-04T19:07:24.429Z,4.45
2023-04-04T19:10:49.601Z,4.41
2023-04-04T19:14:14.746Z,4.37
2023-04-04T19:17:39.958Z,4.36
2023-04-04T19:21:05.119Z,4.33
2023-04-04T19:24:30.265Z,4.32
2023-04-04T19:27:55.450Z,4.28
2023-04-04T19:31:20.658Z,4.25
2023-04-04T19:34:45.792Z,4.24
2023-04-04T19:38:10.963Z,4.19
2023-04-04T19:41:36.165Z,4.09
2023-04-04T19:45:01.287Z,4.01
2023-04-04T19:48:26.463Z,3.93
2023-04-04T19:51:51.611Z,3.87
2023-04-04T19:55:16.819Z,3.83
2023-04-04T19:58:41.983Z,3.82
2023-04-04T20:02:07.178Z,3.83
2023-04-04T20:05:32.510Z,3.86
2023-04-04T20:08:57.527Z,3.88
2023-04-04T20:12:22.906Z,3.94
2023-04-04T20:15:48.072Z,3.96
2023-04-04T20:19:13.190Z,3.93
2023-04-04T20:22:38.369Z,3.9
2023-04-04T20:26:03.558Z,3.87
2023-04-04T20:29:28.753Z,3.84
2023-04-04T20:32:53.908Z,3.82
2023-04-04T20:36:19.048Z,3.8
2023-04-04T20:39:44.279Z,3.8
2023-04-04T20:43:09.409Z,3.77
2023-04-04T20:46:34.634Z,3.73
2023-04-04T20:49:59.755Z,3.67
2023-04-04T20:53:24.879Z,3.67
2023-04-04T20:56:50.062Z,3.63
2023-04-04T21:00:15.228Z,3.59
2023-04-04T21:03:40.412Z,3.6
2023-04-04T21:07:05.564Z,3.6
2023-04-04T21:10:30.713Z,3.57
2023-04-04T21:13:55.869Z,3.54
2023-04-04T21:17:21.018Z,3.48
2023-04-04T21:20:46.204Z,3.43
2023-04-04T21:24:11.308Z,3.4
2023-04-04T21:27:36.453Z,3.36
2023-04-04T21:31:01.627Z,3.34
2023-04-04T21:34:26.773Z,3.31
2023-04-04T21:37:51.942Z,3.29
2023-04-04T21:41:17.058Z,3.28
2023-04-04T21:44:42.238Z,3.3
2023-04-04T21:48:07.450Z,3.32
2023-04-04T21:51:32.593Z,3.32
2023-04-04T21:54:57.758Z,3.31
2023-04-04T21:58:22.889Z,3.3
2023-04-04T22:01:48.047Z,3.29
2023-04-04T22:05:13.291Z,3.28
2023-04-04T22:08:38.367Z,3.27
2023-04-04T22:12:03.574Z,3.26
2023-04-04T22:15:28.714Z,3.26
2023-04-04T22:18:53.870Z,3.25
2023-04-04T22:22:19.039Z,3.27
2023-04-04T22:25:44.196Z,3.25
2023-04-04T22:29:09.360Z,3.23
2023-04-04T22:32:34.536Z,3.2
2023-04-04T22:35:59.672Z,3.16
2023-04-04T22:39:24.829Z,3.05
2023-04-04T22:42:50.018Z,2.9
2023-04-04T22:46:15.289Z,2.81
2023-04-04T22:49:40.365Z,2.77
2023-04-04T22:53:05.492Z,2.66
2023-04-04T22:56:30.652Z,2.57
2023-04-04T22:59:55.804Z,2.48
2023-04-04T23:03:20.978Z,2.42
2023-04-04T23:06:46.145Z,2.33
2023-04-04T23:10:11.295Z,2.27
2023-04-04T23:13:36.428Z,2.2
2023-04-04T23:17:01.601Z,2.02
2023-04-04T23:20:26.795Z,1.9
2023-04-04T23:23:51.897Z,1.83
2023-04-04T23:27:17.048Z,1.73
2023-04-04T23:30:42.378Z,1.58
2023-04-04T23:34:07.344Z,1.48
2023-04-04T23:37:32.518Z,1.52
2023-04-04T23:40:57.658Z,1.55
2023-04-04T23:44:22.826Z,1.59
2023-04-04T23:47:48.004Z,1.66
2023-04-04T23:51:13.121Z,1.63
2023-04-04T23:54:38.348Z,1.63
2023-04-04T23:58:03.460Z,1.63
